createdAt,value
2018-07-31T00:00:48.970Z,1013.20
2018-07-31T00:01:48.927Z,1013.16
2018-07-31T00:02:48.893Z,1013.11
2018-07-31T00:03:48.846Z,1013.15
2018-07-31T00:04:48.817Z,1013.13
2018-07-31T00:05:48.764Z,1013.12
2018-07-31T00:06:48.723Z,1013.08
2018-07-31T00:07:48.683Z,1013.10
2018-07-31T00:08:48.644Z,1013.09
2018-07-31T00:09:48.601Z,1013.07
2018-07-31T00:10:48.560Z,1013.10
2018-07-31T00:11:48.519Z,1013.06
2018-07-31T00:12:48.486Z,1013.08
2018-07-31T00:13:48.439Z,1013.07
2018-07-31T00:14:48.400Z,1013.03
2018-07-31T00:15:48.357Z,1013.04
2018-07-31T00:16:48.317Z,1013.01
2018-07-31T00:17:48.275Z,1013.02
2018-07-31T00:18:48.234Z,1013.04
2018-07-31T00:19:48.194Z,1013.03
2018-07-31T00:20:48.153Z,1013.04
2018-07-31T00:21:48.112Z,1013.03
2018-07-31T00:22:48.071Z,1013.03
2018-07-31T00:23:48.032Z,1013.04
2018-07-31T00:24:47.993Z,1013.04
2018-07-31T00:25:47.951Z,1013.07
2018-07-31T00:26:47.911Z,1013.07
2018-07-31T00:27:47.870Z,1013.11
2018-07-31T00:28:47.826Z,1013.08
2018-07-31T00:29:47.785Z,1013.10
2018-07-31T00:30:47.745Z,1013.08
2018-07-31T00:31:47.704Z,1013.07
2018-07-31T00:32:47.664Z,1013.10
2018-07-31T00:33:47.622Z,1013.09
2018-07-31T00:34:47.581Z,1013.11
2018-07-31T00:35:47.541Z,1013.06
2018-07-31T00:36:47.500Z,1013.09
2018-07-31T00:37:47.458Z,1013.06
2018-07-31T00:38:47.418Z,1013.09
2018-07-31T00:39:47.377Z,1013.08
2018-07-31T00:40:47.339Z,1013.04
2018-07-31T00:41:47.295Z,1013.05
2018-07-31T00:42:47.254Z,1013.05
2018-07-31T00:43:47.214Z,1013.07
2018-07-31T00:44:47.174Z,1013.02
2018-07-31T00:45:47.132Z,1013.03
2018-07-31T00:46:47.092Z,1013.02
2018-07-31T00:47:47.053Z,1013.01
2018-07-31T00:48:47.010Z,1012.99
2018-07-31T00:49:46.968Z,1012.99
2018-07-31T00:50:46.928Z,1012.94
2018-07-31T00:51:46.888Z,1012.97
2018-07-31T00:52:46.846Z,1012.98
2018-07-31T00:53:46.854Z,1012.96
2018-07-31T00:54:46.793Z,1012.98
2018-07-31T00:55:46.724Z,1012.95
2018-07-31T00:56:46.693Z,1012.93
2018-07-31T00:57:46.641Z,1012.93
2018-07-31T00:58:46.604Z,1012.96
2018-07-31T00:59:46.560Z,1012.89
2018-07-31T01:00:46.519Z,1012.93
2018-07-31T01:01:46.477Z,1012.92
2018-07-31T01:02:46.437Z,1012.86
2018-07-31T01:03:46.396Z,1012.87
2018-07-31T01:04:46.361Z,1012.94
2018-07-31T01:05:46.313Z,1012.88
2018-07-31T01:06:46.274Z,1012.93
2018-07-31T01:07:46.233Z,1012.88
2018-07-31T01:08:46.192Z,1012.85
2018-07-31T01:09:46.154Z,1012.87
2018-07-31T01:10:46.110Z,1012.84
2018-07-31T01:11:46.069Z,1012.90
2018-07-31T01:12:46.029Z,1012.88
2018-07-31T01:13:45.989Z,1012.86
2018-07-31T01:14:45.946Z,1012.86
2018-07-31T01:15:45.906Z,1012.85
2018-07-31T01:16:45.864Z,1012.83
2018-07-31T01:17:45.822Z,1012.84
2018-07-31T01:18:45.782Z,1012.85
2018-07-31T01:19:45.742Z,1012.84
2018-07-31T01:20:45.702Z,1012.82
2018-07-31T01:21:45.659Z,1012.83
2018-07-31T01:22:45.618Z,1012.85
2018-07-31T01:23:45.578Z,1012.82
2018-07-31T01:24:45.538Z,1012.81
2018-07-31T01:25:45.495Z,1012.84
2018-07-31T01:26:45.455Z,1012.82
2018-07-31T01:27:45.414Z,1012.75
2018-07-31T01:28:45.375Z,1012.81
2018-07-31T01:29:45.332Z,1012.80
2018-07-31T01:30:45.291Z,1012.81
2018-07-31T01:31:45.250Z,1012.78
2018-07-31T01:32:45.209Z,1012.83
2018-07-31T01:33:45.168Z,1012.84
2018-07-31T01:34:45.129Z,1012.83
2018-07-31T01:35:45.087Z,1012.80
2018-07-31T01:36:45.046Z,1012.82
2018-07-31T01:37:45.004Z,1012.82
2018-07-31T01:38:44.965Z,1012.86
2018-07-31T01:39:44.922Z,1012.84
2018-07-31T01:40:44.882Z,1012.82
2018-07-31T01:41:44.840Z,1012.80
2018-07-31T01:42:44.799Z,1012.79
2018-07-31T01:43:44.759Z,1012.82
2018-07-31T01:44:44.718Z,1012.84
2018-07-31T01:45:44.704Z,1012.82
2018-07-31T01:46:44.635Z,1012.80
2018-07-31T01:47:44.594Z,1012.80
2018-07-31T01:48:44.554Z,1012.82
2018-07-31T01:49:44.512Z,1012.80
2018-07-31T01:50:44.471Z,1012.78
2018-07-31T01:51:44.430Z,1012.77
2018-07-31T01:52:44.389Z,1012.78
2018-07-31T01:53:44.349Z,1012.77
2018-07-31T01:54:44.307Z,1012.80
2018-07-31T01:55:44.266Z,1012.75
2018-07-31T01:56:44.225Z,1012.76
2018-07-31T01:57:44.183Z,1012.76
2018-07-31T01:58:44.143Z,1012.75
2018-07-31T01:59:44.124Z,1012.72
2018-07-31T02:00:44.061Z,1012.73
2018-07-31T02:01:44.020Z,1012.77
2018-07-31T02:02:43.979Z,1012.68
2018-07-31T02:03:43.938Z,1012.70
2018-07-31T02:04:43.897Z,1012.63
2018-07-31T02:05:43.856Z,1012.63
2018-07-31T02:06:43.815Z,1012.68
2018-07-31T02:07:43.783Z,1012.68
2018-07-31T02:08:43.733Z,1012.65
2018-07-31T02:09:43.691Z,1012.58
2018-07-31T02:10:43.650Z,1012.54
2018-07-31T02:11:43.609Z,1012.63
2018-07-31T02:12:43.570Z,1012.60
2018-07-31T02:13:43.527Z,1012.57
2018-07-31T02:14:43.486Z,1012.56
2018-07-31T02:15:43.447Z,1012.57
2018-07-31T02:16:43.405Z,1012.53
2018-07-31T02:17:43.363Z,1012.55
2018-07-31T02:18:43.328Z,1012.50
2018-07-31T02:19:43.282Z,1012.53
2018-07-31T02:20:43.240Z,1012.46
2018-07-31T02:21:43.199Z,1012.45
2018-07-31T02:22:43.157Z,1012.49
2018-07-31T02:23:43.117Z,1012.50
2018-07-31T02:24:43.088Z,1012.50
2018-07-31T02:25:43.037Z,1012.48
2018-07-31T02:26:42.993Z,1012.49
2018-07-31T02:27:42.952Z,1012.46
2018-07-31T02:28:42.967Z,1012.45
2018-07-31T02:29:42.870Z,1012.47
2018-07-31T02:30:42.829Z,1012.42
2018-07-31T02:31:42.789Z,1012.41
2018-07-31T02:32:42.746Z,1012.43
2018-07-31T02:33:42.705Z,1012.42
2018-07-31T02:34:42.669Z,1012.42
2018-07-31T02:35:42.623Z,1012.43
2018-07-31T02:36:42.582Z,1012.41
2018-07-31T02:37:42.544Z,1012.43
2018-07-31T02:38:42.506Z,1012.43
2018-07-31T02:39:42.458Z,1012.44
2018-07-31T02:40:42.418Z,1012.42
2018-07-31T02:41:42.376Z,1012.44
2018-07-31T02:42:42.335Z,1012.41
2018-07-31T02:43:42.294Z,1012.45
2018-07-31T02:44:42.253Z,1012.41
2018-07-31T02:45:42.211Z,1012.42
2018-07-31T02:46:42.189Z,1012.43
2018-07-31T02:47:42.129Z,1012.44
2018-07-31T02:48:42.089Z,1012.44
2018-07-31T02:49:42.052Z,1012.44
2018-07-31T02:50:42.005Z,1012.45
2018-07-31T02:51:41.970Z,1012.44
2018-07-31T02:52:41.925Z,1012.42
2018-07-31T02:53:41.881Z,1012.43
2018-07-31T02:54:41.845Z,1012.44
2018-07-31T02:55:41.799Z,1012.45
2018-07-31T02:56:41.759Z,1012.41
2018-07-31T02:57:41.720Z,1012.50
2018-07-31T02:58:41.676Z,1012.49
2018-07-31T02:59:41.637Z,1012.52
2018-07-31T03:00:41.594Z,1012.53
2018-07-31T03:01:41.555Z,1012.55
2018-07-31T03:02:41.513Z,1012.56
2018-07-31T03:03:41.470Z,1012.56
2018-07-31T03:04:41.429Z,1012.56
2018-07-31T03:05:41.389Z,1012.58
2018-07-31T03:06:41.351Z,1012.58
2018-07-31T03:07:41.305Z,1012.58
2018-07-31T03:08:41.265Z,1012.61
2018-07-31T03:09:41.223Z,1012.61
2018-07-31T03:10:41.188Z,1012.59
2018-07-31T03:11:41.142Z,1012.60
2018-07-31T03:12:41.101Z,1012.62
2018-07-31T03:13:41.060Z,1012.61
2018-07-31T03:14:41.017Z,1012.56
2018-07-31T03:15:40.976Z,1012.61
2018-07-31T03:16:40.946Z,1012.61
2018-07-31T03:17:40.905Z,1012.57
2018-07-31T03:18:40.852Z,1012.56
2018-07-31T03:19:40.830Z,1012.56
2018-07-31T03:20:40.771Z,1012.61
2018-07-31T03:21:40.729Z,1012.60
2018-07-31T03:22:40.689Z,1012.61
2018-07-31T03:23:40.646Z,1012.59
2018-07-31T03:24:40.605Z,1012.59
2018-07-31T03:25:40.563Z,1012.62
2018-07-31T03:26:40.522Z,1012.58
2018-07-31T03:27:40.481Z,1012.59
2018-07-31T03:28:40.441Z,1012.55
2018-07-31T03:29:40.405Z,1012.55
2018-07-31T03:30:40.358Z,1012.53
2018-07-31T03:31:40.317Z,1012.50
2018-07-31T03:32:40.276Z,1012.51
2018-07-31T03:33:40.233Z,1012.53
2018-07-31T03:34:40.192Z,1012.46
2018-07-31T03:35:40.152Z,1012.52
2018-07-31T03:36:40.110Z,1012.51
2018-07-31T03:37:40.070Z,1012.51
2018-07-31T03:38:40.027Z,1012.54
2018-07-31T03:39:39.987Z,1012.57
2018-07-31T03:40:39.945Z,1012.58
2018-07-31T03:41:39.903Z,1012.59
2018-07-31T03:42:39.863Z,1012.64
2018-07-31T03:43:39.821Z,1012.62
2018-07-31T03:44:39.781Z,1012.63
2018-07-31T03:45:39.740Z,1012.64
2018-07-31T03:46:39.697Z,1012.66
2018-07-31T03:47:39.656Z,1012.67
2018-07-31T03:48:39.615Z,1012.70
2018-07-31T03:49:39.573Z,1012.68
2018-07-31T03:50:39.532Z,1012.67
2018-07-31T03:51:39.491Z,1012.69
2018-07-31T03:52:39.450Z,1012.72
2018-07-31T03:53:39.407Z,1012.71
2018-07-31T03:54:39.367Z,1012.71
2018-07-31T03:55:39.383Z,1012.67
2018-07-31T03:56:39.285Z,1012.65
2018-07-31T03:57:39.243Z,1012.66
2018-07-31T03:58:39.201Z,1012.66
2018-07-31T03:59:39.160Z,1012.67
2018-07-31T04:00:39.120Z,1012.65
2018-07-31T04:01:39.077Z,1012.63
2018-07-31T04:02:39.036Z,1012.64
2018-07-31T04:03:38.995Z,1012.63
2018-07-31T04:04:38.995Z,1012.67
2018-07-31T04:05:38.916Z,1012.64
2018-07-31T04:06:38.871Z,1012.63
2018-07-31T04:07:38.830Z,1012.64
2018-07-31T04:08:38.789Z,1012.62
2018-07-31T04:09:38.746Z,1012.65
2018-07-31T04:10:38.706Z,1012.60
2018-07-31T04:11:38.665Z,1012.61
2018-07-31T04:12:38.624Z,1012.68
2018-07-31T04:13:38.582Z,1012.62
2018-07-31T04:14:38.541Z,1012.64
2018-07-31T04:15:38.500Z,1012.63
2018-07-31T04:16:38.459Z,1012.60
2018-07-31T04:17:38.417Z,1012.61
2018-07-31T04:18:38.378Z,1012.66
2018-07-31T04:19:38.336Z,1012.63
2018-07-31T04:20:38.293Z,1012.66
2018-07-31T04:21:38.252Z,1012.72
2018-07-31T04:22:38.210Z,1012.69
2018-07-31T04:23:38.169Z,1012.75
2018-07-31T04:24:38.128Z,1012.73
2018-07-31T04:25:38.087Z,1012.70
2018-07-31T04:26:38.050Z,1012.72
2018-07-31T04:27:38.008Z,1012.75
2018-07-31T04:28:37.966Z,1012.71
2018-07-31T04:29:37.971Z,1012.71
2018-07-31T04:30:37.880Z,1012.72
2018-07-31T04:31:37.839Z,1012.69
2018-07-31T04:32:37.798Z,1012.72
2018-07-31T04:33:37.757Z,1012.72
2018-07-31T04:34:37.715Z,1012.71
2018-07-31T04:35:37.677Z,1012.75
2018-07-31T04:36:37.636Z,1012.73
2018-07-31T04:37:37.591Z,1012.72
2018-07-31T04:38:37.549Z,1012.72
2018-07-31T04:39:37.508Z,1012.72
2018-07-31T04:40:37.470Z,1012.72
2018-07-31T04:41:37.425Z,1012.73
2018-07-31T04:42:37.385Z,1012.71
2018-07-31T04:43:37.343Z,1012.70
2018-07-31T04:44:37.302Z,1012.69
2018-07-31T04:45:37.260Z,1012.68
2018-07-31T04:46:37.219Z,1012.69
2018-07-31T04:47:37.177Z,1012.65
2018-07-31T04:48:37.141Z,1012.67
2018-07-31T04:49:37.094Z,1012.64
2018-07-31T04:50:37.054Z,1012.63
2018-07-31T04:51:37.012Z,1012.58
2018-07-31T04:52:36.971Z,1012.60
2018-07-31T04:53:36.929Z,1012.60
2018-07-31T04:54:36.888Z,1012.59
2018-07-31T04:55:36.847Z,1012.59
2018-07-31T04:56:36.821Z,1012.59
2018-07-31T04:57:36.763Z,1012.59
2018-07-31T04:58:36.723Z,1012.60
2018-07-31T04:59:36.695Z,1012.61
2018-07-31T05:00:36.640Z,1012.60
2018-07-31T05:01:36.598Z,1012.61
2018-07-31T05:02:36.557Z,1012.58
2018-07-31T05:03:36.516Z,1012.56
2018-07-31T05:04:36.475Z,1012.58
2018-07-31T05:05:36.433Z,1012.55
2018-07-31T05:06:36.392Z,1012.58
2018-07-31T05:07:36.351Z,1012.59
2018-07-31T05:08:36.310Z,1012.57
2018-07-31T05:09:36.268Z,1012.61
2018-07-31T05:10:36.226Z,1012.61
2018-07-31T05:11:36.186Z,1012.61
2018-07-31T05:12:36.145Z,1012.60
2018-07-31T05:13:36.102Z,1012.61
2018-07-31T05:14:36.062Z,1012.61
2018-07-31T05:15:36.020Z,1012.62
2018-07-31T05:16:35.979Z,1012.59
2018-07-31T05:17:35.956Z,1012.59
2018-07-31T05:18:35.896Z,1012.62
2018-07-31T05:19:35.856Z,1012.62
2018-07-31T05:20:35.815Z,1012.61
2018-07-31T05:21:35.773Z,1012.58
2018-07-31T05:22:35.732Z,1012.63
2018-07-31T05:23:35.691Z,1012.59
2018-07-31T05:24:35.650Z,1012.61
2018-07-31T05:25:35.609Z,1012.60
2018-07-31T05:26:35.568Z,1012.62
2018-07-31T05:27:35.527Z,1012.60
2018-07-31T05:28:35.486Z,1012.63
2018-07-31T05:29:35.445Z,1012.65
2018-07-31T05:30:35.404Z,1012.62
2018-07-31T05:31:35.364Z,1012.54
2018-07-31T05:32:35.403Z,1012.59
2018-07-31T05:33:35.281Z,1012.58
2018-07-31T05:34:35.241Z,1012.59
2018-07-31T05:35:35.200Z,1012.58
2018-07-31T05:36:35.160Z,1012.59
2018-07-31T05:37:35.118Z,1012.56
2018-07-31T05:38:35.078Z,1012.64
2018-07-31T05:39:35.038Z,1012.62
2018-07-31T05:40:35.001Z,1012.59
2018-07-31T05:41:34.956Z,1012.58
2018-07-31T05:42:34.919Z,1012.62
2018-07-31T05:43:34.875Z,1012.63
2018-07-31T05:44:34.834Z,1012.61
2018-07-31T05:45:34.793Z,1012.63
2018-07-31T05:46:34.753Z,1012.61
2018-07-31T05:47:34.712Z,1012.64
2018-07-31T05:48:34.674Z,1012.62
2018-07-31T05:49:34.632Z,1012.64
2018-07-31T05:50:34.592Z,1012.62
2018-07-31T05:51:34.551Z,1012.59
2018-07-31T05:52:34.512Z,1012.60
2018-07-31T05:53:34.469Z,1012.59
2018-07-31T05:54:34.431Z,1012.57
2018-07-31T05:55:34.389Z,1012.59
2018-07-31T05:56:34.349Z,1012.58
2018-07-31T05:57:34.308Z,1012.60
2018-07-31T05:58:34.268Z,1012.57
2018-07-31T05:59:34.262Z,1012.60
2018-07-31T06:00:34.188Z,1012.61
2018-07-31T06:01:34.147Z,1012.55
2018-07-31T06:02:34.157Z,1012.63
2018-07-31T06:03:34.128Z,1012.61
2018-07-31T06:04:34.027Z,1012.63
2018-07-31T06:05:33.986Z,1012.63
2018-07-31T06:06:33.946Z,1012.64
2018-07-31T06:07:33.907Z,1012.63
2018-07-31T06:08:33.866Z,1012.65
2018-07-31T06:09:33.860Z,1012.68
2018-07-31T06:10:33.786Z,1012.68
2018-07-31T06:11:33.746Z,1012.68
2018-07-31T06:12:33.706Z,1012.73
2018-07-31T06:13:33.666Z,1012.70
2018-07-31T06:14:33.626Z,1012.69
2018-07-31T06:15:33.588Z,1012.69
2018-07-31T06:16:33.546Z,1012.65
2018-07-31T06:17:33.506Z,1012.69
2018-07-31T06:18:33.466Z,1012.67
2018-07-31T06:19:33.426Z,1012.69
2018-07-31T06:20:33.387Z,1012.66
2018-07-31T06:21:33.346Z,1012.70
2018-07-31T06:22:33.306Z,1012.75
2018-07-31T06:23:33.267Z,1012.70
2018-07-31T06:24:33.227Z,1012.70
2018-07-31T06:25:33.244Z,1012.72
2018-07-31T06:26:33.147Z,1012.70
2018-07-31T06:27:33.108Z,1012.77
2018-07-31T06:28:33.069Z,1012.75
2018-07-31T06:29:33.049Z,1012.75
2018-07-31T06:30:32.988Z,1012.73
2018-07-31T06:31:32.951Z,1012.78
2018-07-31T06:32:32.909Z,1012.75
2018-07-31T06:33:32.869Z,1012.75
2018-07-31T06:34:32.833Z,1012.79
2018-07-31T06:35:32.790Z,1012.74
2018-07-31T06:36:32.750Z,1012.76
2018-07-31T06:37:32.711Z,1012.74
2018-07-31T06:38:32.670Z,1012.75
2018-07-31T06:39:32.631Z,1012.73
2018-07-31T06:40:32.619Z,1012.73
2018-07-31T06:41:32.554Z,1012.73
2018-07-31T06:42:32.512Z,1012.73
2018-07-31T06:43:32.569Z,1012.73
2018-07-31T06:44:32.433Z,1012.71
2018-07-31T06:45:32.393Z,1012.72
2018-07-31T06:46:32.354Z,1012.71
2018-07-31T06:47:32.314Z,1012.74
2018-07-31T06:48:32.275Z,1012.75
2018-07-31T06:49:32.235Z,1012.73
2018-07-31T06:50:32.195Z,1012.77
2018-07-31T06:51:32.156Z,1012.73
2018-07-31T06:52:32.117Z,1012.75
2018-07-31T06:53:32.077Z,1012.78
2018-07-31T06:54:32.038Z,1012.79
2018-07-31T06:55:32.000Z,1012.76
2018-07-31T06:56:31.959Z,1012.80
2018-07-31T06:57:31.918Z,1012.83
2018-07-31T06:58:31.882Z,1012.81
2018-07-31T06:59:31.840Z,1012.82
2018-07-31T07:00:31.801Z,1012.82
2018-07-31T07:01:31.785Z,1012.82
2018-07-31T07:02:31.722Z,1012.80
2018-07-31T07:03:31.682Z,1012.78
2018-07-31T07:04:31.646Z,1012.77
2018-07-31T07:05:31.604Z,1012.79
2018-07-31T07:06:31.564Z,1012.77
2018-07-31T07:07:31.526Z,1012.75
2018-07-31T07:08:31.490Z,1012.78
2018-07-31T07:09:31.446Z,1012.84
2018-07-31T07:10:31.407Z,1012.80
2018-07-31T07:11:31.368Z,1012.78
2018-07-31T07:12:31.328Z,1012.79
2018-07-31T07:13:31.289Z,1012.80
2018-07-31T07:14:31.251Z,1012.82
2018-07-31T07:15:31.240Z,1012.79
2018-07-31T07:16:31.175Z,1012.79
2018-07-31T07:17:31.131Z,1012.81
2018-07-31T07:18:31.093Z,1012.82
2018-07-31T07:19:31.054Z,1012.82
2018-07-31T07:20:31.015Z,1012.87
2018-07-31T07:21:30.975Z,1012.82
2018-07-31T07:22:30.940Z,1012.86
2018-07-31T07:23:30.896Z,1012.87
2018-07-31T07:24:30.858Z,1012.86
2018-07-31T07:25:30.818Z,1012.88
2018-07-31T07:26:30.781Z,1012.86
2018-07-31T07:27:30.789Z,1012.88
2018-07-31T07:28:30.701Z,1012.88
2018-07-31T07:29:30.663Z,1012.91
2018-07-31T07:30:30.623Z,1012.91
2018-07-31T07:31:30.588Z,1012.87
2018-07-31T07:32:30.546Z,1012.83
2018-07-31T07:33:30.515Z,1012.85
2018-07-31T07:34:30.472Z,1012.85
2018-07-31T07:35:30.428Z,1012.86
2018-07-31T07:36:30.389Z,1012.86
2018-07-31T07:37:30.350Z,1012.88
2018-07-31T07:38:30.311Z,1012.85
2018-07-31T07:39:30.272Z,1012.89
2018-07-31T07:40:30.234Z,1012.87
2018-07-31T07:41:30.194Z,1012.87
2018-07-31T07:42:30.155Z,1012.86
2018-07-31T07:43:30.116Z,1012.87
2018-07-31T07:44:30.079Z,1012.94
2018-07-31T07:45:30.040Z,1012.86
2018-07-31T07:46:30.001Z,1012.85
2018-07-31T07:47:29.961Z,1012.89
2018-07-31T07:48:29.944Z,1012.93
2018-07-31T07:49:29.912Z,1012.91
2018-07-31T07:50:29.845Z,1012.92
2018-07-31T07:51:29.806Z,1012.91
2018-07-31T07:52:29.768Z,1012.89
2018-07-31T07:53:29.729Z,1012.90
2018-07-31T07:54:29.690Z,1012.92
2018-07-31T07:55:29.653Z,1012.92
2018-07-31T07:56:29.614Z,1012.94
2018-07-31T07:57:29.574Z,1012.96
2018-07-31T07:58:29.536Z,1012.98
2018-07-31T07:59:29.498Z,1012.92
2018-07-31T08:00:29.513Z,1012.97
2018-07-31T08:01:29.420Z,1012.93
2018-07-31T08:02:29.382Z,1012.94
2018-07-31T08:03:29.344Z,1012.95
2018-07-31T08:04:29.306Z,1012.95
2018-07-31T08:05:29.267Z,1013.00
2018-07-31T08:06:29.228Z,1012.95
2018-07-31T08:07:29.191Z,1012.89
2018-07-31T08:08:29.153Z,1012.91
2018-07-31T08:09:29.117Z,1012.92
2018-07-31T08:10:29.076Z,1012.94
2018-07-31T08:11:29.038Z,1012.98
2018-07-31T08:12:29.001Z,1012.91
2018-07-31T08:13:28.961Z,1012.93
2018-07-31T08:14:28.923Z,1012.89
2018-07-31T08:15:28.885Z,1012.87
2018-07-31T08:16:28.848Z,1012.84
2018-07-31T08:17:28.854Z,1012.92
2018-07-31T08:18:28.772Z,1012.89
2018-07-31T08:19:28.734Z,1012.91
2018-07-31T08:20:28.719Z,1012.87
2018-07-31T08:21:28.658Z,1012.87
2018-07-31T08:22:28.668Z,1012.86
2018-07-31T08:23:28.582Z,1012.88
2018-07-31T08:24:28.545Z,1012.84
2018-07-31T08:25:28.507Z,1012.83
2018-07-31T08:26:28.472Z,1012.88
2018-07-31T08:27:28.432Z,1012.89
2018-07-31T08:28:28.395Z,1012.91
2018-07-31T08:29:28.360Z,1012.95
2018-07-31T08:30:28.319Z,1012.93
2018-07-31T08:31:28.281Z,1012.91
2018-07-31T08:32:28.244Z,1012.93
2018-07-31T08:33:28.208Z,1012.92
2018-07-31T08:34:28.235Z,1012.94
2018-07-31T08:35:28.132Z,1012.98
2018-07-31T08:36:28.096Z,1012.96
2018-07-31T08:37:28.057Z,1012.93
2018-07-31T08:38:28.020Z,1012.89
2018-07-31T08:39:27.982Z,1012.93
2018-07-31T08:40:27.946Z,1012.91
2018-07-31T08:41:27.950Z,1012.90
2018-07-31T08:42:27.872Z,1012.89
2018-07-31T08:43:27.840Z,1012.90
2018-07-31T08:44:27.797Z,1012.86
2018-07-31T08:45:27.759Z,1012.91
2018-07-31T08:46:27.722Z,1012.89
2018-07-31T08:47:27.689Z,1012.87
2018-07-31T08:48:27.671Z,1012.86
2018-07-31T08:49:27.611Z,1012.85
2018-07-31T08:50:27.574Z,1012.80
2018-07-31T08:51:27.538Z,1012.79
2018-07-31T08:52:27.502Z,1012.79
2018-07-31T08:53:27.465Z,1012.78
2018-07-31T08:54:27.427Z,1012.74
2018-07-31T08:55:27.393Z,1012.83
2018-07-31T08:56:27.354Z,1012.84
2018-07-31T08:57:27.317Z,1012.83
2018-07-31T08:58:27.280Z,1012.85
2018-07-31T08:59:27.244Z,1012.80
2018-07-31T09:00:27.208Z,1012.83
2018-07-31T09:01:27.170Z,1012.81
2018-07-31T09:02:27.134Z,1012.82
2018-07-31T09:03:27.100Z,1012.79
2018-07-31T09:04:27.062Z,1012.83
2018-07-31T09:05:27.025Z,1012.82
2018-07-31T09:06:26.988Z,1012.86
2018-07-31T09:07:26.952Z,1012.89
2018-07-31T09:08:27.067Z,1012.85
2018-07-31T09:09:26.879Z,1012.85
2018-07-31T09:10:26.843Z,1012.82
2018-07-31T09:11:26.807Z,1012.81
2018-07-31T09:12:26.773Z,1012.87
2018-07-31T09:13:26.733Z,1012.81
2018-07-31T09:14:26.697Z,1012.72
2018-07-31T09:15:26.661Z,1012.73
2018-07-31T09:16:26.625Z,1012.79
2018-07-31T09:17:26.620Z,1012.71
2018-07-31T09:18:26.552Z,1012.72
2018-07-31T09:19:26.516Z,1012.72
2018-07-31T09:20:26.484Z,1012.65
2018-07-31T09:21:26.443Z,1012.67
2018-07-31T09:22:26.458Z,1012.64
2018-07-31T09:23:26.372Z,1012.67
2018-07-31T09:24:26.399Z,1012.61
2018-07-31T09:25:26.298Z,1012.63
2018-07-31T09:26:26.267Z,1012.69
2018-07-31T09:27:26.233Z,1012.60
2018-07-31T09:28:26.191Z,1012.64
2018-07-31T09:29:26.154Z,1012.56
2018-07-31T09:30:26.149Z,1012.67
2018-07-31T09:31:26.083Z,1012.64
2018-07-31T09:32:26.046Z,1012.70
2018-07-31T09:33:26.013Z,1012.67
2018-07-31T09:34:25.972Z,1012.60
2018-07-31T09:35:25.955Z,1012.67
2018-07-31T09:36:25.919Z,1012.64
2018-07-31T09:37:25.863Z,1012.57
2018-07-31T09:38:25.828Z,1012.63
2018-07-31T09:39:25.791Z,1012.65
2018-07-31T09:40:25.756Z,1012.59
2018-07-31T09:41:25.718Z,1012.61
2018-07-31T09:42:25.682Z,1012.59
2018-07-31T09:43:25.645Z,1012.62
2018-07-31T09:44:25.610Z,1012.54
2018-07-31T09:45:25.572Z,1012.58
2018-07-31T09:46:25.536Z,1012.59
2018-07-31T09:47:25.499Z,1012.57
2018-07-31T09:48:25.464Z,1012.56
2018-07-31T09:49:25.484Z,1012.57
2018-07-31T09:50:25.389Z,1012.55
2018-07-31T09:51:25.352Z,1012.53
2018-07-31T09:52:25.316Z,1012.56
2018-07-31T09:53:25.279Z,1012.53
2018-07-31T09:54:25.242Z,1012.52
2018-07-31T09:55:25.205Z,1012.47
2018-07-31T09:56:25.172Z,1012.43
2018-07-31T09:57:25.130Z,1012.44
2018-07-31T09:58:25.099Z,1012.43
2018-07-31T09:59:25.065Z,1012.44
2018-07-31T10:00:25.020Z,1012.43
2018-07-31T10:01:24.982Z,1012.45
2018-07-31T10:02:24.944Z,1012.49
2018-07-31T10:03:24.906Z,1012.50
2018-07-31T10:04:24.871Z,1012.42
2018-07-31T10:05:24.944Z,1012.48
2018-07-31T10:06:24.795Z,1012.43
2018-07-31T10:07:24.756Z,1012.39
2018-07-31T10:08:24.719Z,1012.39
2018-07-31T10:09:24.680Z,1012.39
2018-07-31T10:10:24.643Z,1012.38
2018-07-31T10:11:24.605Z,1012.35
2018-07-31T10:12:24.568Z,1012.32
2018-07-31T10:13:24.529Z,1012.33
2018-07-31T10:14:24.496Z,1012.37
2018-07-31T10:15:24.454Z,1012.36
2018-07-31T10:16:24.415Z,1012.38
2018-07-31T10:17:24.378Z,1012.32
2018-07-31T10:18:24.340Z,1012.32
2018-07-31T10:19:24.309Z,1012.32
2018-07-31T10:20:24.265Z,1012.32
2018-07-31T10:21:24.225Z,1012.35
2018-07-31T10:22:24.188Z,1012.32
2018-07-31T10:23:24.150Z,1012.31
2018-07-31T10:24:24.134Z,1012.26
2018-07-31T10:25:24.075Z,1012.29
2018-07-31T10:26:24.042Z,1012.25
2018-07-31T10:27:23.997Z,1012.29
2018-07-31T10:28:23.960Z,1012.36
2018-07-31T10:29:23.921Z,1012.30
2018-07-31T10:30:23.887Z,1012.30
2018-07-31T10:31:23.845Z,1012.26
2018-07-31T10:32:23.811Z,1012.22
2018-07-31T10:33:23.768Z,1012.28
2018-07-31T10:34:23.731Z,1012.30
2018-07-31T10:35:23.693Z,1012.22
2018-07-31T10:36:23.654Z,1012.25
2018-07-31T10:37:23.636Z,1012.36
2018-07-31T10:38:23.578Z,1012.35
2018-07-31T10:39:23.540Z,1012.34
2018-07-31T10:40:23.502Z,1012.33
2018-07-31T10:41:23.563Z,1012.33
2018-07-31T10:42:23.425Z,1012.30
2018-07-31T10:43:23.387Z,1012.31
2018-07-31T10:44:23.350Z,1012.32
2018-07-31T10:45:23.312Z,1012.29
2018-07-31T10:46:23.274Z,1012.29
2018-07-31T10:47:23.234Z,1012.28
2018-07-31T10:48:23.197Z,1012.36
2018-07-31T10:49:23.157Z,1012.36
2018-07-31T10:50:23.121Z,1012.31
2018-07-31T10:51:23.081Z,1012.25
2018-07-31T10:52:23.043Z,1012.33
2018-07-31T10:53:23.004Z,1012.28
2018-07-31T10:54:22.971Z,1012.30
2018-07-31T10:55:22.927Z,1012.28
2018-07-31T10:56:22.889Z,1012.28
2018-07-31T10:57:22.850Z,1012.24
2018-07-31T10:58:22.850Z,1012.25
2018-07-31T10:59:22.774Z,1012.22
2018-07-31T11:00:22.841Z,1012.27
2018-07-31T11:01:22.701Z,1012.22
2018-07-31T11:02:22.658Z,1012.21
2018-07-31T11:03:22.621Z,1012.26
2018-07-31T11:04:22.667Z,1012.25
2018-07-31T11:05:22.544Z,1012.26
2018-07-31T11:06:22.581Z,1012.23
2018-07-31T11:07:22.467Z,1012.24
2018-07-31T11:08:22.429Z,1012.21
2018-07-31T11:09:22.390Z,1012.24
2018-07-31T11:10:22.365Z,1012.19
2018-07-31T11:11:22.313Z,1012.29
2018-07-31T11:12:22.275Z,1012.22
2018-07-31T11:13:22.324Z,1012.21
2018-07-31T11:14:22.198Z,1012.17
2018-07-31T11:15:22.213Z,1012.20
2018-07-31T11:16:22.122Z,1012.15
2018-07-31T11:17:22.083Z,1012.25
2018-07-31T11:18:22.050Z,1012.16
2018-07-31T11:19:22.006Z,1012.20
2018-07-31T11:20:21.968Z,1012.14
2018-07-31T11:21:21.985Z,1012.19
2018-07-31T11:22:21.890Z,1012.25
2018-07-31T11:23:21.852Z,1012.11
2018-07-31T11:24:21.815Z,1012.18
2018-07-31T11:25:21.775Z,1012.19
2018-07-31T11:26:21.737Z,1012.17
2018-07-31T11:27:21.720Z,1012.20
2018-07-31T11:28:21.659Z,1012.10
2018-07-31T11:29:21.621Z,1012.11
2018-07-31T11:30:21.583Z,1012.08
2018-07-31T11:31:21.547Z,1012.11
2018-07-31T11:32:21.505Z,1012.08
2018-07-31T11:33:21.566Z,1012.04
2018-07-31T11:34:21.432Z,1012.13
2018-07-31T11:35:21.393Z,1011.98
2018-07-31T11:36:21.351Z,1012.06
2018-07-31T11:37:21.312Z,1012.07
2018-07-31T11:38:21.275Z,1012.02
2018-07-31T11:39:21.235Z,1012.02
2018-07-31T11:40:21.197Z,1012.00
2018-07-31T11:41:21.157Z,1012.03
2018-07-31T11:42:21.119Z,1011.98
2018-07-31T11:43:21.081Z,1011.99
2018-07-31T11:44:21.042Z,1012.05
2018-07-31T11:45:21.005Z,1012.03
2018-07-31T11:46:20.968Z,1012.14
2018-07-31T11:47:20.926Z,1012.04
2018-07-31T11:48:20.888Z,1011.98
2018-07-31T11:49:20.848Z,1011.97
2018-07-31T11:50:20.810Z,1011.90
2018-07-31T11:51:20.772Z,1011.93
2018-07-31T11:52:20.733Z,1011.87
2018-07-31T11:53:20.694Z,1011.94
2018-07-31T11:54:20.656Z,1011.98
2018-07-31T11:55:20.617Z,1011.97
2018-07-31T11:56:20.583Z,1011.94
2018-07-31T11:57:20.538Z,1011.91
2018-07-31T11:58:20.501Z,1011.95
2018-07-31T11:59:20.463Z,1011.88
2018-07-31T12:00:20.424Z,1011.95
2018-07-31T12:01:20.391Z,1011.89
2018-07-31T12:02:20.346Z,1011.86
2018-07-31T12:03:20.308Z,1011.83
2018-07-31T12:04:20.329Z,1011.87
2018-07-31T12:05:20.230Z,1011.84